Atlantic City, Wyoming
Current Conditions -  °F | °C
As of 4:15 PM on Saturday 22 Nov 2014 (Local Time) from KFWZ Reporting Station
Light Snow Light Snow  
Wind Chill: 20°   Ceiling: 200
Heat Index: 32°   Visibility: 1mi
Dew Point: 32°   Wind: 21mph
Humidity: 100%   Direction: 240°WSW
Pressure: 29.54"   Gusts: 36mph
Location:  42.6143°N, 108.586°W
Report Text: KFWZ 222315Z AUTO 24018G31KT 1SM -SN BKN002 OVC006 00/00 A2954 RMK AO2
Loading
Personal Weather Stations






























Interactive Weather Map New forecast layout! Learn more

10-Day Weather Forecast

Advertisements
Track Severe Weather on mobile